Time;durP1;ratioP1;P1;durP2;ratioP2;P2;SDS_P1;SDS_P2;PMS_P1;PMS_P2;Temp;Humidity;BMP_temperature;BMP_pressure;BME280_temperature;BME280_humidity;BME280_pressure;Samples;Min_cycle;Max_cycle;Signal;HPM_P1;HPM_P2
2021/06/28 00:01:28;;;;;;;1.35;0.88;;;15.50;99.90;;;;;;4990495;28;20228;-79
2021/06/28 00:03:54;;;;;;;2.20;1.42;;;15.50;99.90;;;;;;5002730;28;20223;-77
2021/06/28 00:06:20;;;;;;;1.13;1.05;;;15.50;99.90;;;;;;4985194;28;20203;-77
2021/06/28 00:08:46;;;;;;;0.50;0.50;;;15.50;99.90;;;;;;4985256;28;20197;-76
2021/06/28 00:11:13;;;;;;;0.70;0.70;;;15.40;99.90;;;;;;4991176;28;20561;-77
2021/06/28 00:13:41;;;;;;;1.15;0.80;;;15.40;99.90;;;;;;5009181;28;20640;-78
2021/06/28 00:16:08;;;;;;;0.77;0.77;;;15.40;99.90;;;;;;4992276;28;20198;-77
2021/06/28 00:18:34;;;;;;;0.30;0.30;;;15.30;99.90;;;;;;4991562;28;20227;-77
2021/06/28 00:21:01;;;;;;;7.13;1.40;;;15.20;99.90;;;;;;5006215;28;20608;-76
2021/06/28 00:23:27;;;;;;;0.95;0.63;;;15.20;99.90;;;;;;4989805;28;20215;-77
2021/06/28 00:25:53;;;;;;;0.35;0.35;;;15.10;99.90;;;;;;4989741;28;20199;-77
2021/06/28 00:28:21;;;;;;;1.13;0.65;;;15.10;99.90;;;;;;4988641;28;20716;-77
2021/06/28 00:30:48;;;;;;;0.50;0.50;;;15.00;99.90;;;;;;5004861;28;20271;-76
2021/06/28 00:33:16;;;;;;;0.70;0.70;;;15.00;99.90;;;;;;4989565;28;20203;-76
2021/06/28 00:35:42;;;;;;;0.40;0.40;;;14.90;99.90;;;;;;4989783;28;20688;-76
2021/06/28 00:38:09;;;;;;;0.65;0.65;;;14.90;99.90;;;;;;4986938;28;20227;-77
2021/06/28 00:40:36;;;;;;;0.40;0.40;;;14.80;99.90;;;;;;4988830;28;20278;-76
2021/06/28 00:43:02;;;;;;;1.00;0.95;;;14.80;99.90;;;;;;5004166;28;20211;-76
2021/06/28 00:45:31;;;;;;;3.00;1.88;;;14.80;99.90;;;;;;4987528;28;20281;-76
2021/06/28 00:48:00;;;;;;;0.50;0.50;;;14.70;99.90;;;;;;4993081;28;20229;-76
2021/06/28 00:50:28;;;;;;;0.85;0.82;;;14.70;99.90;;;;;;4993232;28;20196;-78
2021/06/28 00:53:00;;;;;;;0.60;0.60;;;14.70;99.90;;;;;;4987034;28;20210;-77
2021/06/28 00:55:27;;;;;;;0.50;0.50;;;14.60;99.90;;;;;;4993820;28;20210;-78
2021/06/28 00:57:53;;;;;;;0.77;0.77;;;14.60;99.90;;;;;;4993222;28;20195;-77
2021/06/28 01:00:20;;;;;;;0.60;0.60;;;14.50;99.90;;;;;;4984019;28;20259;-78
2021/06/28 01:02:47;;;;;;;0.65;0.65;;;14.50;99.90;;;;;;5021501;23;20300;-70
2021/06/28 01:05:21;;;;;;;0.50;0.50;;;14.50;99.90;;;;;;5045840;28;20194;-70
2021/06/28 01:07:48;;;;;;;0.55;0.55;;;14.40;99.90;;;;;;5045821;28;20197;-71
2021/06/28 01:10:15;;;;;;;0.63;0.55;;;14.40;99.90;;;;;;5044772;28;20203;-70
2021/06/28 01:12:47;;;;;;;1.60;1.02;;;14.40;99.90;;;;;;5039191;28;20194;-70
2021/06/28 01:15:14;;;;;;;1.75;1.55;;;14.40;99.90;;;;;;5044695;28;20666;-69
2021/06/28 01:17:40;;;;;;;0.50;0.50;;;14.50;99.90;;;;;;5045939;28;20208;-69
2021/06/28 01:20:11;;;;;;;0.90;0.90;;;14.50;99.90;;;;;;5044244;28;20256;-70
2021/06/28 01:22:39;;;;;;;0.50;0.50;;;14.50;99.90;;;;;;5045153;28;20205;-70
2021/06/28 01:25:09;;;;;;;0.47;0.47;;;14.50;99.90;;;;;;5045848;28;20197;-70
2021/06/28 01:27:34;;;;;;;1.33;1.02;;;14.50;99.90;;;;;;5045469;28;20561;-70
2021/06/28 01:30:00;;;;;;;0.63;0.63;;;14.40;99.90;;;;;;5044872;28;20194;-70
2021/06/28 01:32:27;;;;;;;0.85;0.85;;;14.40;99.90;;;;;;5061899;28;20977;-71
2021/06/28 01:34:53;;;;;;;1.17;0.77;;;14.30;99.90;;;;;;5045356;28;20531;-70
2021/06/28 01:37:24;;;;;;;0.65;0.65;;;14.20;99.90;;;;;;5044267;28;20236;-70
2021/06/28 01:39:53;;;;;;;0.40;0.40;;;14.10;99.90;;;;;;5044836;28;20740;-70
2021/06/28 01:42:20;;;;;;;0.40;0.40;;;14.00;99.90;;;;;;5053120;28;20697;-70
2021/06/28 01:44:46;;;;;;;0.50;0.50;;;14.00;99.90;;;;;;5043327;28;20193;-69
2021/06/28 01:47:12;;;;;;;0.60;0.60;;;14.00;99.90;;;;;;5045184;28;20201;-69
2021/06/28 01:49:38;;;;;;;0.55;0.55;;;14.00;99.90;;;;;;5044683;28;20227;-70
2021/06/28 01:52:05;;;;;;;1.33;1.05;;;14.00;99.90;;;;;;5043600;28;20197;-69
2021/06/28 01:54:31;;;;;;;0.82;0.80;;;13.90;99.90;;;;;;5050252;28;20201;-69
2021/06/28 01:56:58;;;;;;;0.50;0.50;;;14.00;99.90;;;;;;5044663;28;20668;-70
2021/06/28 01:59:25;;;;;;;0.40;0.40;;;14.00;99.90;;;;;;5043956;28;20308;-70
2021/06/28 02:01:51;;;;;;;1.05;0.95;;;14.00;99.90;;;;;;5041318;28;20255;-70
2021/06/28 02:04:18;;;;;;;0.50;0.50;;;14.00;99.90;;;;;;5040609;28;20691;-70
2021/06/28 02:06:44;;;;;;;2.58;0.95;;;14.00;99.90;;;;;;5040167;28;20271;-70
2021/06/28 02:09:09;;;;;;;1.10;0.60;;;14.00;99.90;;;;;;5038871;28;21700;-69
2021/06/28 02:11:35;;;;;;;0.70;0.70;;;14.10;99.90;;;;;;5039741;28;20194;-70
2021/06/28 02:14:01;;;;;;;0.70;0.70;;;14.10;99.90;;;;;;5041766;28;20224;-69
2021/06/28 02:16:26;;;;;;;0.80;0.80;;;14.20;99.90;;;;;;5040705;28;20209;-71
2021/06/28 02:18:52;;;;;;;0.98;0.85;;;14.20;99.90;;;;;;5042015;28;20190;-69
2021/06/28 02:21:18;;;;;;;1.05;0.60;;;14.20;99.90;;;;;;5038914;28;20197;-69
2021/06/28 02:23:43;;;;;;;1.92;1.73;;;14.10;99.90;;;;;;5040724;28;20705;-69
2021/06/28 02:26:11;;;;;;;0.85;0.85;;;14.20;99.90;;;;;;5041292;28;20695;-70
2021/06/28 02:28:43;;;;;;;0.63;0.63;;;14.20;99.90;;;;;;5039301;28;20528;-69
2021/06/28 02:31:11;;;;;;;0.77;0.77;;;14.20;99.90;;;;;;5045194;28;20193;-69
2021/06/28 02:33:39;;;;;;;0.57;0.57;;;14.20;99.90;;;;;;5045751;28;20252;-71
2021/06/28 02:36:06;;;;;;;0.65;0.65;;;14.20;99.90;;;;;;5045784;28;20752;-70
2021/06/28 02:38:32;;;;;;;0.80;0.80;;;14.20;99.90;;;;;;5043442;28;20193;-70
2021/06/28 02:40:58;;;;;;;1.48;1.08;;;14.20;99.90;;;;;;5047088;28;20212;-70
2021/06/28 02:43:24;;;;;;;0.82;0.70;;;14.20;99.90;;;;;;5046914;28;20209;-71
2021/06/28 02:45:50;;;;;;;0.50;0.50;;;14.20;99.90;;;;;;5043630;28;20247;-70
2021/06/28 02:48:16;;;;;;;0.40;0.40;;;14.20;99.90;;;;;;5048916;28;20324;-70
2021/06/28 02:50:42;;;;;;;0.82;0.82;;;14.30;99.90;;;;;;5042490;28;20590;-70
2021/06/28 02:53:08;;;;;;;0.60;0.60;;;14.30;99.90;;;;;;5045958;28;20206;-70
2021/06/28 02:55:34;;;;;;;0.93;0.93;;;14.40;99.90;;;;;;5043956;28;20229;-70
2021/06/28 02:58:00;;;;;;;0.63;0.57;;;14.40;99.90;;;;;;5045114;28;20551;-70
2021/06/28 03:00:26;;;;;;;0.68;0.68;;;14.40;99.90;;;;;;5042652;28;20249;-71
2021/06/28 03:02:52;;;;;;;0.65;0.50;;;14.50;99.90;;;;;;5045502;28;20225;-70
2021/06/28 03:05:18;;;;;;;0.57;0.57;;;14.40;99.90;;;;;;5043004;28;20203;-71
2021/06/28 03:07:44;;;;;;;0.60;0.60;;;14.40;99.90;;;;;;5043427;28;20638;-71
2021/06/28 03:10:13;;;;;;;1.65;1.25;;;14.40;99.90;;;;;;5046345;28;20182;-71
2021/06/28 03:12:39;;;;;;;0.85;0.85;;;14.40;99.90;;;;;;5043553;28;20629;-71
2021/06/28 03:15:08;;;;;;;0.60;0.60;;;14.30;99.90;;;;;;5044642;28;20365;-71
2021/06/28 03:17:34;;;;;;;1.10;1.00;;;14.30;99.90;;;;;;5044750;28;20582;-70
2021/06/28 03:20:00;;;;;;;2.05;1.25;;;14.20;99.90;;;;;;5044530;28;20194;-70
2021/06/28 03:22:26;;;;;;;0.60;0.60;;;14.20;99.90;;;;;;5044034;28;20212;-70
2021/06/28 03:24:52;;;;;;;0.80;0.75;;;14.20;99.90;;;;;;5042791;28;20652;-70
2021/06/28 03:27:18;;;;;;;0.60;0.60;;;14.20;99.90;;;;;;5043075;28;20216;-70
2021/06/28 03:29:44;;;;;;;0.90;0.90;;;14.20;99.90;;;;;;5041273;28;20636;-70
2021/06/28 03:32:10;;;;;;;0.55;0.55;;;14.30;99.90;;;;;;5038950;28;20202;-70
2021/06/28 03:34:35;;;;;;;18.17;1.23;;;14.40;99.90;;;;;;5043495;28;20231;-70
2021/06/28 03:37:01;;;;;;;1.52;0.82;;;14.40;99.90;;;;;;5044836;28;20280;-70
2021/06/28 03:39:27;;;;;;;2.05;1.33;;;14.50;99.90;;;;;;5042697;28;20243;-70
2021/06/28 03:41:52;;;;;;;0.63;0.63;;;14.50;99.90;;;;;;5046563;28;20734;-71
2021/06/28 03:44:18;;;;;;;0.88;0.88;;;14.60;99.90;;;;;;5046839;28;20201;-70
2021/06/28 03:46:44;;;;;;;1.75;0.82;;;14.60;99.90;;;;;;5040377;28;20205;-71
2021/06/28 03:49:09;;;;;;;1.30;1.20;;;14.70;99.90;;;;;;5045025;28;20198;-70
2021/06/28 03:51:35;;;;;;;0.70;0.70;;;14.80;99.90;;;;;;5042849;28;20193;-70
2021/06/28 03:54:02;;;;;;;1.40;0.93;;;14.90;99.90;;;;;;5041491;28;20194;-70
2021/06/28 03:56:28;;;;;;;0.40;0.40;;;15.00;99.90;;;;;;5041932;28;20628;-70
2021/06/28 03:58:53;;;;;;;0.90;0.85;;;15.00;99.90;;;;;;5043686;28;20189;-71
2021/06/28 04:01:19;;;;;;;0.60;0.57;;;15.20;99.90;;;;;;5046383;28;20301;-71
2021/06/28 04:03:45;;;;;;;1.95;1.33;;;15.30;99.90;;;;;;5044150;28;20225;-71
2021/06/28 04:06:10;;;;;;;0.50;0.50;;;15.40;99.90;;;;;;5042453;28;20194;-70
2021/06/28 04:08:38;;;;;;;0.65;0.65;;;15.50;99.90;;;;;;5042436;28;20194;-70
2021/06/28 04:11:05;;;;;;;0.40;0.40;;;15.50;99.90;;;;;;5041951;28;20558;-71
2021/06/28 04:13:31;;;;;;;0.68;0.68;;;15.60;99.90;;;;;;5041529;28;20204;-71
2021/06/28 04:15:56;;;;;;;0.82;0.82;;;15.70;99.90;;;;;;5040504;28;20202;-71
2021/06/28 04:18:22;;;;;;;1.25;0.90;;;15.70;99.90;;;;;;5044654;28;20263;-71
2021/06/28 04:20:49;;;;;;;0.50;0.50;;;15.80;99.90;;;;;;5043016;28;20891;-70
2021/06/28 04:23:15;;;;;;;0.65;0.65;;;15.80;99.90;;;;;;5042087;28;20213;-70
2021/06/28 04:25:41;;;;;;;3.83;1.75;;;15.90;99.90;;;;;;5041852;28;20568;-71
2021/06/28 04:28:07;;;;;;;2.45;0.95;;;15.90;99.90;;;;;;5036405;28;20194;-72
2021/06/28 04:30:33;;;;;;;0.40;0.40;;;16.00;99.90;;;;;;5042943;28;20249;-69
2021/06/28 04:32:59;;;;;;;1.38;0.68;;;16.00;99.90;;;;;;5042555;28;20206;-71
2021/06/28 04:35:27;;;;;;;2.92;0.95;;;16.00;99.90;;;;;;5042088;28;20216;-71
2021/06/28 04:37:54;;;;;;;0.40;0.40;;;16.10;99.90;;;;;;5042919;28;20240;-71
2021/06/28 04:40:22;;;;;;;0.60;0.60;;;16.10;99.90;;;;;;5041170;28;20238;-70
2021/06/28 04:42:49;;;;;;;1.27;0.60;;;16.10;99.90;;;;;;5044128;28;20669;-70
2021/06/28 04:45:16;;;;;;;1.75;1.05;;;16.20;99.90;;;;;;5043087;28;20285;-70
2021/06/28 04:47:43;;;;;;;0.98;0.90;;;16.20;99.90;;;;;;5043147;28;20205;-70
2021/06/28 04:50:10;;;;;;;0.30;0.30;;;16.30;99.90;;;;;;5039873;28;20931;-70
2021/06/28 04:52:37;;;;;;;0.52;0.50;;;16.30;99.90;;;;;;5041082;28;20232;-69
2021/06/28 04:55:05;;;;;;;0.85;0.80;;;16.30;99.90;;;;;;5042648;28;20271;-69
2021/06/28 04:57:31;;;;;;;0.52;0.47;;;16.40;99.90;;;;;;5043482;28;20201;-71
2021/06/28 04:59:56;;;;;;;0.57;0.40;;;16.50;99.90;;;;;;5044185;28;20201;-71
2021/06/28 05:02:22;;;;;;;0.63;0.63;;;16.60;99.90;;;;;;5043752;28;20230;-69
2021/06/28 05:04:48;;;;;;;0.60;0.60;;;16.60;99.90;;;;;;5042786;28;20579;-70
2021/06/28 05:07:15;;;;;;;0.70;0.70;;;16.70;99.90;;;;;;5044389;28;20207;-71
2021/06/28 05:09:42;;;;;;;1.30;0.85;;;16.80;99.90;;;;;;5036817;28;20208;-70
2021/06/28 05:12:08;;;;;;;3.92;1.35;;;16.80;99.90;;;;;;5027344;28;20625;-71
2021/06/28 05:14:34;;;;;;;1.35;1.10;;;16.90;99.90;;;;;;5036787;28;20284;-70
2021/06/28 05:17:00;;;;;;;2.30;1.10;;;17.00;99.90;;;;;;5029880;28;20200;-70
2021/06/28 05:19:26;;;;;;;0.65;0.65;;;17.00;99.90;;;;;;5033044;28;20288;-72
2021/06/28 05:21:52;;;;;;;1.42;0.98;;;16.90;99.90;;;;;;5037764;28;20316;-71
2021/06/28 05:24:18;;;;;;;0.52;0.52;;;16.90;99.90;;;;;;5037697;28;20726;-71
2021/06/28 05:26:44;;;;;;;1.02;0.93;;;16.90;99.90;;;;;;5024938;28;20189;-69
2021/06/28 05:29:09;;;;;;;1.15;0.80;;;17.00;99.90;;;;;;5035573;28;20205;-70
2021/06/28 05:31:35;;;;;;;0.95;0.85;;;17.00;99.90;;;;;;5030619;28;20197;-69
2021/06/28 05:34:01;;;;;;;1.75;0.88;;;17.10;99.90;;;;;;5030965;28;20202;-70
2021/06/28 05:36:26;;;;;;;1.70;1.17;;;17.20;99.90;;;;;;5036381;28;20201;-71
2021/06/28 05:38:52;;;;;;;0.40;0.40;;;17.30;99.90;;;;;;5033581;28;20193;-69
2021/06/28 05:41:18;;;;;;;0.75;0.75;;;17.40;99.90;;;;;;5030951;28;20209;-69
2021/06/28 05:43:45;;;;;;;1.10;0.75;;;17.50;99.90;;;;;;5032513;28;20323;-69
2021/06/28 05:46:12;;;;;;;0.35;0.35;;;17.60;99.90;;;;;;5032862;28;20213;-70
2021/06/28 05:48:37;;;;;;;0.40;0.40;;;17.70;99.90;;;;;;5032154;28;20198;-71
2021/06/28 05:51:03;;;;;;;1.02;0.57;;;17.70;99.90;;;;;;5036761;28;20197;-69
2021/06/28 05:53:29;;;;;;;0.50;0.50;;;17.70;99.90;;;;;;5033942;28;20201;-69
2021/06/28 05:55:58;;;;;;;1.45;0.93;;;17.70;99.90;;;;;;5037952;28;20895;-71
2021/06/28 05:58:26;;;;;;;0.70;0.45;;;17.70;99.90;;;;;;5036675;28;20637;-71
2021/06/28 06:00:52;;;;;;;0.68;0.68;;;17.60;99.90;;;;;;5032763;28;20205;-70
2021/06/28 06:03:18;;;;;;;0.30;0.30;;;17.60;99.90;;;;;;5038064;28;20229;-70
2021/06/28 06:05:43;;;;;;;0.65;0.65;;;17.70;99.90;;;;;;5028400;28;20197;-70
2021/06/28 06:08:10;;;;;;;0.30;0.30;;;17.80;99.90;;;;;;5026686;28;20229;-71
2021/06/28 06:10:36;;;;;;;1.45;0.93;;;17.80;99.90;;;;;;5033150;28;20641;-70
2021/06/28 06:13:02;;;;;;;0.40;0.40;;;17.70;99.90;;;;;;5036862;28;20194;-71
2021/06/28 06:15:27;;;;;;;0.60;0.60;;;17.60;99.90;;;;;;5032693;28;20212;-70
2021/06/28 06:17:53;;;;;;;1.13;0.65;;;17.60;99.90;;;;;;5034059;28;20197;-70
2021/06/28 06:20:19;;;;;;;0.60;0.60;;;17.60;99.90;;;;;;5033726;28;20213;-70
2021/06/28 06:22:45;;;;;;;0.40;0.40;;;17.70;99.90;;;;;;5032433;28;20209;-69
2021/06/28 06:25:11;;;;;;;0.63;0.63;;;18.00;99.90;;;;;;5031621;28;20193;-70
2021/06/28 06:27:37;;;;;;;0.45;0.45;;;18.10;99.90;;;;;;5032767;28;20631;-70
2021/06/28 06:30:05;;;;;;;0.40;0.40;;;18.50;99.90;;;;;;5037320;28;20854;-70
2021/06/28 06:32:31;;;;;;;0.43;0.43;;;19.00;99.90;;;;;;5049954;28;20884;-70
2021/06/28 06:34:56;;;;;;;0.40;0.40;;;19.00;99.90;;;;;;5025956;28;20190;-71
2021/06/28 06:37:22;;;;;;;0.80;0.80;;;19.10;99.90;;;;;;5030037;28;20632;-69
2021/06/28 06:39:48;;;;;;;0.65;0.55;;;19.20;99.90;;;;;;5034981;28;20255;-70
2021/06/28 06:42:14;;;;;;;0.45;0.45;;;19.20;99.90;;;;;;5035584;28;20228;-70
2021/06/28 06:44:40;;;;;;;0.57;0.57;;;19.10;99.90;;;;;;5031963;28;20209;-70
2021/06/28 06:47:05;;;;;;;0.60;0.60;;;19.10;99.90;;;;;;5037835;28;20224;-70
2021/06/28 06:49:31;;;;;;;0.77;0.70;;;19.10;99.90;;;;;;5019219;28;20613;-71
2021/06/28 06:51:57;;;;;;;4.53;1.52;;;19.20;99.90;;;;;;5035326;28;20197;-70
2021/06/28 06:54:22;;;;;;;0.75;0.50;;;19.30;99.90;;;;;;5031510;28;20240;-71
2021/06/28 06:56:48;;;;;;;0.40;0.40;;;19.30;99.90;;;;;;5026701;28;20750;-70
2021/06/28 06:59:14;;;;;;;4.13;1.27;;;19.40;99.90;;;;;;5030695;28;20287;-71
2021/06/28 07:01:42;;;;;;;0.30;0.30;;;19.40;99.90;;;;;;5024366;28;20288;-71
2021/06/28 07:04:08;;;;;;;0.60;0.60;;;19.50;99.90;;;;;;5021622;28;20528;-71
2021/06/28 07:06:34;;;;;;;0.40;0.40;;;19.40;99.90;;;;;;5030774;28;20557;-71
2021/06/28 07:09:00;;;;;;;0.73;0.60;;;19.20;99.90;;;;;;5021509;28;20554;-71
2021/06/28 07:11:26;;;;;;;0.70;0.70;;;19.30;99.90;;;;;;5029802;28;20235;-72
2021/06/28 07:13:52;;;;;;;0.47;0.47;;;19.40;99.90;;;;;;5029800;28;20506;-71
2021/06/28 07:16:25;;;;;;;0.57;0.57;;;19.40;99.90;;;;;;5052246;28;20297;-71
2021/06/28 07:18:51;;;;;;;1.13;0.90;;;19.20;99.90;;;;;;5038612;28;20201;-71
2021/06/28 07:21:17;;;;;;;0.85;0.63;;;19.10;99.90;;;;;;5034190;28;20702;-71
2021/06/28 07:23:43;;;;;;;0.40;0.30;;;19.00;99.90;;;;;;5034784;28;20216;-71
2021/06/28 07:26:09;;;;;;;0.68;0.68;;;19.00;99.90;;;;;;5035355;28;20356;-71
2021/06/28 07:28:35;;;;;;;0.70;0.70;;;18.90;99.90;;;;;;5033069;28;20759;-70
2021/06/28 07:31:01;;;;;;;0.70;0.50;;;18.90;99.90;;;;;;5032409;28;20194;-71
2021/06/28 07:33:33;;;;;;;3.30;1.58;;;18.90;99.90;;;;;;5035536;28;20224;-70
2021/06/28 07:35:59;;;;;;;2.28;0.65;;;19.00;99.90;;;;;;5031780;28;20201;-71
2021/06/28 07:38:25;;;;;;;0.43;0.40;;;19.10;99.90;;;;;;5037883;28;20198;-72
2021/06/28 07:40:51;;;;;;;0.30;0.30;;;19.10;99.90;;;;;;5037718;28;20204;-71
2021/06/28 07:43:17;;;;;;;0.63;0.47;;;19.10;99.90;;;;;;5038211;28;20577;-69
2021/06/28 07:45:44;;;;;;;0.32;0.30;;;19.10;99.90;;;;;;5033216;28;20259;-69
2021/06/28 07:48:10;;;;;;;0.50;0.50;;;18.80;99.90;;;;;;5033047;28;20194;-70
2021/06/28 07:50:36;;;;;;;0.50;0.50;;;18.80;99.90;;;;;;5030806;28;20872;-70
2021/06/28 07:53:02;;;;;;;0.40;0.40;;;18.70;99.90;;;;;;5033952;28;20209;-71
2021/06/28 07:55:28;;;;;;;0.85;0.45;;;18.80;99.90;;;;;;5037468;28;20202;-71
2021/06/28 07:57:54;;;;;;;0.80;0.80;;;18.90;99.90;;;;;;5036196;28;20208;-71
2021/06/28 08:00:20;;;;;;;7.65;1.00;;;18.90;99.90;;;;;;5035815;28;20201;-71
2021/06/28 08:02:46;;;;;;;0.80;0.70;;;18.80;99.90;;;;;;5036439;28;20264;-70
2021/06/28 08:05:13;;;;;;;0.50;0.43;;;18.90;99.90;;;;;;5036673;28;20255;-71
2021/06/28 08:07:39;;;;;;;0.88;0.55;;;19.00;99.90;;;;;;5038513;28;20247;-70
2021/06/28 08:10:08;;;;;;;0.38;0.38;;;19.10;99.90;;;;;;5036812;28;20194;-71
2021/06/28 08:12:34;;;;;;;0.20;0.20;;;19.10;99.90;;;;;;5035711;28;20209;-71
2021/06/28 08:15:00;;;;;;;0.38;0.38;;;19.10;99.90;;;;;;5037034;28;20206;-71
2021/06/28 08:17:26;;;;;;;0.60;0.60;;;19.00;99.90;;;;;;5033635;28;20208;-72
2021/06/28 08:19:52;;;;;;;0.80;0.77;;;19.00;99.90;;;;;;5036684;28;20679;-70
2021/06/28 08:22:19;;;;;;;0.50;0.50;;;19.00;99.90;;;;;;5037979;28;20212;-70
2021/06/28 08:24:45;;;;;;;0.40;0.40;;;18.90;99.90;;;;;;5033225;28;20193;-70
2021/06/28 08:27:11;;;;;;;0.93;0.60;;;18.90;99.90;;;;;;5053347;28;20285;-70
2021/06/28 08:29:38;;;;;;;0.25;0.25;;;18.80;99.90;;;;;;5053887;28;20728;-70
2021/06/28 08:32:04;;;;;;;1.95;1.27;;;18.80;99.90;;;;;;5038982;28;20811;-70
2021/06/28 08:34:31;;;;;;;0.40;0.40;;;18.90;99.90;;;;;;5031759;28;20267;-71
2021/06/28 08:36:57;;;;;;;0.30;0.30;;;18.80;99.90;;;;;;5038022;28;20592;-70
2021/06/28 08:39:23;;;;;;;0.32;0.30;;;18.80;99.90;;;;;;5035292;28;20201;-69
2021/06/28 08:45:12;;;;;;;0.38;0.38;;;18.90;99.90;;;;;;5035192;28;20292;-71
2021/06/28 08:47:40;;;;;;;0.20;0.20;;;18.80;99.90;;;;;;5036531;28;20240;-70
2021/06/28 08:50:09;;;;;;;0.73;0.73;;;18.70;99.90;;;;;;5029314;28;20198;-70
2021/06/28 08:52:38;;;;;;;0.20;0.20;;;18.80;99.90;;;;;;5033427;28;20860;-70
2021/06/28 08:55:06;;;;;;;0.30;0.30;;;18.90;99.90;;;;;;5037333;28;20567;-70
2021/06/28 08:57:32;;;;;;;0.38;0.38;;;18.90;99.90;;;;;;5022954;28;20201;-71
2021/06/28 08:59:58;;;;;;;1.17;0.65;;;19.00;99.90;;;;;;5029083;28;20224;-70
2021/06/28 09:02:23;;;;;;;0.30;0.30;;;19.10;99.90;;;;;;5034192;28;20234;-70
2021/06/28 09:05:04;;;;;;;1.55;0.90;;;19.10;99.90;;;;;;5036463;28;20558;-71
2021/06/28 09:07:30;;;;;;;0.32;0.32;;;19.30;99.90;;;;;;5034610;28;20899;-71
2021/06/28 09:09:55;;;;;;;0.50;0.50;;;19.50;99.90;;;;;;5035517;28;20213;-71
2021/06/28 09:12:21;;;;;;;0.57;0.57;;;19.50;99.90;;;;;;5033890;28;20204;-71
2021/06/28 09:14:49;;;;;;;0.73;0.68;;;19.40;99.90;;;;;;5034008;28;20206;-71
2021/06/28 09:17:39;;;;;;;0.47;0.47;;;19.40;99.90;;;;;;5032752;28;20220;-70
2021/06/28 09:20:20;;;;;;;0.60;0.60;;;19.20;99.90;;;;;;5034526;28;20223;-71
2021/06/28 09:22:48;;;;;;;0.50;0.50;;;19.10;99.90;;;;;;5032448;28;20218;-71
2021/06/28 09:25:37;;;;;;;1.85;1.30;;;19.30;99.90;;;;;;5030877;28;20193;-70
2021/06/28 09:28:04;;;;;;;1.08;0.50;;;19.20;99.90;;;;;;5029280;28;20777;-71
2021/06/28 09:30:31;;;;;;;1.60;1.48;;;19.20;99.90;;;;;;5032363;28;20205;-71
2021/06/28 09:33:00;;;;;;;0.47;0.47;;;19.20;99.90;;;;;;5032138;28;20189;-71
2021/06/28 09:35:31;;;;;;;1.48;0.80;;;19.30;99.90;;;;;;5030876;28;21031;-71
2021/06/28 09:38:06;;;;;;;1.30;0.77;;;19.50;99.90;;;;;;5050676;28;20260;-71
2021/06/28 09:40:33;;;;;;;0.50;0.50;;;19.50;99.90;;;;;;5034099;28;20236;-71
2021/06/28 09:42:59;;;;;;;0.73;0.73;;;19.60;99.90;;;;;;5036985;28;20320;-72
2021/06/28 09:45:25;;;;;;;11.50;0.82;;;19.70;99.90;;;;;;5033952;28;20201;-71
2021/06/28 09:47:51;;;;;;;0.30;0.30;;;19.60;99.90;;;;;;5035721;28;20704;-71
2021/06/28 09:50:20;;;;;;;0.95;0.57;;;19.40;99.90;;;;;;5037770;28;20197;-71
2021/06/28 09:52:49;;;;;;;0.35;0.35;;;19.30;99.90;;;;;;5037242;28;20224;-72
2021/06/28 09:55:14;;;;;;;0.45;0.45;;;19.20;99.90;;;;;;5035294;28;20205;-71
2021/06/28 09:58:05;;;;;;;1.90;0.82;;;19.00;99.90;;;;;;5048600;28;20781;-71
2021/06/28 10:00:33;;;;;;;0.65;0.63;;;18.90;99.90;;;;;;5050435;28;20233;-71
2021/06/28 10:02:59;;;;;;;0.32;0.32;;;19.00;99.90;;;;;;5034749;28;20222;-72
2021/06/28 10:05:54;;;;;;;0.40;0.40;;;19.10;99.90;;;;;;5032779;28;20220;-71
2021/06/28 10:08:20;;;;;;;0.30;0.30;;;19.00;99.90;;;;;;5034738;28;20194;-72
2021/06/28 10:10:46;;;;;;;0.70;0.70;;;18.90;99.90;;;;;;5033338;28;20220;-71
2021/06/28 10:13:11;;;;;;;0.50;0.50;;;19.00;99.90;;;;;;5035690;28;20204;-71
2021/06/28 10:15:41;;;;;;;1.70;1.60;;;19.20;99.90;;;;;;5035803;28;20667;-71
2021/06/28 10:18:10;;;;;;;1.25;1.15;;;19.30;99.90;;;;;;5035785;28;20755;-72
2021/06/28 10:20:39;;;;;;;0.68;0.68;;;19.50;99.90;;;;;;5034928;28;20260;-71
2021/06/28 10:23:06;;;;;;;1.55;1.02;;;19.60;99.90;;;;;;5038756;28;20718;-72
2021/06/28 10:25:33;;;;;;;0.75;0.70;;;19.60;99.90;;;;;;5034916;28;20204;-71
2021/06/28 10:28:00;;;;;;;1.65;1.02;;;19.60;99.90;;;;;;5034160;28;20303;-71
2021/06/28 10:30:27;;;;;;;26.95;1.45;;;19.70;99.90;;;;;;5035278;28;20718;-71
2021/06/28 10:33:14;;;;;;;2.88;0.95;;;20.00;99.90;;;;;;5040311;28;20255;-72
2021/06/28 10:35:41;;;;;;;2.33;1.30;;;20.40;99.90;;;;;;5036376;28;20749;-71
2021/06/28 10:38:13;;;;;;;3.03;1.05;;;20.60;99.90;;;;;;5038342;28;20603;-70
2021/06/28 10:40:54;;;;;;;3.00;1.40;;;20.60;99.90;;;;;;5038414;28;20250;-71
2021/06/28 10:43:21;;;;;;;1.48;0.80;;;20.40;99.90;;;;;;5036726;28;20558;-71
2021/06/28 10:45:46;;;;;;;1.13;0.90;;;20.20;99.90;;;;;;5033966;28;20263;-71
2021/06/28 10:48:15;;;;;;;1.45;0.90;;;19.90;99.90;;;;;;5038750;28;20647;-72
2021/06/28 10:51:01;;;;;;;0.50;0.50;;;19.70;99.90;;;;;;5037929;28;20197;-71
2021/06/28 10:53:32;;;;;;;0.60;0.60;;;19.70;99.90;;;;;;5039246;28;20248;-71
2021/06/28 10:56:26;;;;;;;0.90;0.85;;;19.60;99.90;;;;;;5043717;28;20205;-71
2021/06/28 10:59:03;;;;;;;0.90;0.73;;;19.70;99.90;;;;;;5034753;28;20288;-71
2021/06/28 11:01:39;;;;;;;1.50;1.38;;;19.60;99.90;;;;;;5039387;28;20205;-71
2021/06/28 11:04:06;;;;;;;14.70;1.27;;;19.40;99.90;;;;;;5039513;28;20221;-71
2021/06/28 11:06:33;;;;;;;0.88;0.82;;;19.30;99.90;;;;;;5043364;28;20550;-72
2021/06/28 11:09:10;;;;;;;0.60;0.60;;;19.20;99.90;;;;;;5041688;28;20192;-72
2021/06/28 11:11:45;;;;;;;0.55;0.40;;;19.30;99.90;;;;;;5038205;28;20201;-72
2021/06/28 11:14:19;;;;;;;1.20;0.75;;;19.30;99.90;;;;;;5037961;28;20637;-72
2021/06/28 11:17:09;;;;;;;0.75;0.75;;;19.40;99.90;;;;;;5042061;28;20287;-71
2021/06/28 11:22:33;;;;;;;1.20;0.60;;;19.50;99.90;;;;;;5035835;28;20564;-71
2021/06/28 11:25:08;;;;;;;1.25;0.73;;;19.60;99.90;;;;;;5037528;28;20222;-71
2021/06/28 11:27:38;;;;;;;3.38;1.50;;;19.70;99.90;;;;;;5035978;28;20292;-72
2021/06/28 11:30:15;;;;;;;1.38;0.95;;;19.90;99.90;;;;;;5026763;28;20190;-70
2021/06/28 11:33:05;;;;;;;0.40;0.40;;;20.30;99.90;;;;;;5031075;28;20204;-73
2021/06/28 11:35:51;;;;;;;0.40;0.40;;;20.60;99.90;;;;;;5044441;28;20205;-74
2021/06/28 11:38:24;;;;;;;0.38;0.38;;;21.20;99.90;;;;;;5035744;28;20194;-73
2021/06/28 11:41:01;;;;;;;0.60;0.57;;;21.10;99.90;;;;;;5049296;28;20732;-72
2021/06/28 11:43:38;;;;;;;1.15;0.90;;;21.00;99.90;;;;;;5034827;28;20602;-73
2021/06/28 11:46:06;;;;;;;0.93;0.60;;;21.10;99.90;;;;;;5033358;28;20193;-73
2021/06/28 11:48:36;;;;;;;0.98;0.50;;;21.60;99.90;;;;;;5035349;28;20621;-73
2021/06/28 11:51:34;;;;;;;0.30;0.30;;;21.80;99.90;;;;;;5034981;28;20196;-72
2021/06/28 11:54:18;;;;;;;0.63;0.63;;;21.70;99.90;;;;;;5034395;28;20201;-73
2021/06/28 11:56:48;;;;;;;0.20;0.20;;;21.80;99.90;;;;;;5025972;28;20204;-72
2021/06/28 11:59:16;;;;;;;1.45;1.05;;;22.00;99.90;;;;;;5029459;28;20233;-72
2021/06/28 12:01:52;;;;;;;0.20;0.20;;;22.00;99.90;;;;;;5024808;28;20655;-72
2021/06/28 12:04:24;;;;;;;0.25;0.25;;;22.00;99.90;;;;;;5034809;28;20780;-73
2021/06/28 12:06:52;;;;;;;1.30;0.63;;;22.20;99.90;;;;;;5035790;28;20194;-73
2021/06/28 12:09:26;;;;;;;0.52;0.43;;;22.30;99.90;;;;;;5033379;28;20201;-73
2021/06/28 12:12:02;;;;;;;0.52;0.50;;;22.60;99.90;;;;;;5031778;28;20291;-75
2021/06/28 12:14:41;;;;;;;3.42;0.60;;;23.10;99.90;;;;;;5031833;28;20226;-73
2021/06/28 12:17:13;;;;;;;1.08;0.93;;;23.10;99.90;;;;;;5034690;28;20197;-73
2021/06/28 12:19:41;;;;;;;0.77;0.77;;;22.80;99.90;;;;;;5034670;28;20198;-73
2021/06/28 12:22:09;;;;;;;0.50;0.32;;;23.50;99.90;;;;;;5029358;28;20216;-73
2021/06/28 12:24:34;;;;;;;1.67;0.30;;;23.70;99.90;;;;;;5030089;28;20587;-73
2021/06/28 12:27:05;;;;;;;0.40;0.40;;;23.50;99.90;;;;;;5030175;28;21020;-74
2021/06/28 12:29:39;;;;;;;1.27;1.02;;;24.10;99.90;;;;;;5031599;28;20212;-72
2021/06/28 12:32:11;;;;;;;11.23;1.08;;;23.90;99.90;;;;;;5031873;28;20198;-71
2021/06/28 12:34:38;;;;;;;1.15;0.57;;;23.70;99.90;;;;;;5027549;28;20240;-72
2021/06/28 12:37:05;;;;;;;0.73;0.60;;;23.40;99.90;;;;;;5029082;28;20209;-72
2021/06/28 12:39:32;;;;;;;0.75;0.47;;;23.50;99.90;;;;;;5034157;28;20216;-71
2021/06/28 12:42:18;;;;;;;0.40;0.40;;;23.80;99.90;;;;;;5030552;28;20284;-71
2021/06/28 12:44:45;;;;;;;0.93;0.63;;;24.80;99.90;;;;;;5032510;28;20856;-71
2021/06/28 12:47:16;;;;;;;0.93;0.90;;;25.20;99.90;;;;;;5035934;28;20197;-71
2021/06/28 12:49:43;;;;;;;0.35;0.35;;;25.20;99.90;;;;;;5032662;28;20202;-73
2021/06/28 12:52:32;;;;;;;2.83;1.27;;;24.90;99.90;;;;;;5031922;28;20193;-74
2021/06/28 12:55:11;;;;;;;0.55;0.52;;;24.50;99.90;;;;;;5035445;28;20286;-72
2021/06/28 12:57:39;;;;;;;2.72;1.38;;;24.30;99.90;;;;;;5033858;28;20193;-70